Time;durP1;ratioP1;P1;durP2;ratioP2;P2;SDS_P1;SDS_P2;PMS_P1;PMS_P2;Temp;Humidity;BMP_temperature;BMP_pressure;BME280_temperature;BME280_humidity;BME280_pressure;Samples;Min_cycle;Max_cycle;Signal;HPM_P1;HPM_P2
2023/03/25 00:00:48;;;;;;;1.07;0.70;;;;;;;10.10;78.58;99419.66;5007144;28;20764;-79
2023/03/25 00:03:16;;;;;;;1.80;0.70;;;;;;;10.17;78.04;99405.53;5007821;28;20203;-79
2023/03/25 00:05:42;;;;;;;1.13;0.57;;;;;;;10.26;77.99;99412.19;5007597;28;20261;-80
2023/03/25 00:08:09;;;;;;;1.53;0.73;;;;;;;10.22;77.83;99421.84;5007638;28;20232;-80
2023/03/25 00:10:36;;;;;;;0.70;0.50;;;;;;;10.21;77.79;99430.59;5007557;28;20315;-81
2023/03/25 00:13:04;;;;;;;1.50;0.83;;;;;;;10.17;78.13;99418.56;5007143;28;20230;-80
2023/03/25 00:15:32;;;;;;;1.73;1.00;;;;;;;10.14;77.72;99411.69;5007644;28;20200;-81
2023/03/25 00:17:59;;;;;;;1.23;0.60;;;;;;;10.22;78.00;99426.22;5009295;28;20669;-80
2023/03/25 00:20:27;;;;;;;1.70;0.80;;;;;;;10.25;77.41;99426.97;5005767;28;20201;-79
2023/03/25 00:22:54;;;;;;;0.67;0.60;;;;;;;10.22;77.44;99429.69;5006477;28;20298;-79
2023/03/25 00:25:21;;;;;;;4.07;1.23;;;;;;;10.20;77.51;99428.03;5005547;28;20210;-79
2023/03/25 00:27:49;;;;;;;1.90;0.70;;;;;;;10.18;77.43;99438.50;5005961;28;20664;-79
2023/03/25 00:30:17;;;;;;;3.00;1.10;;;;;;;10.17;77.84;99434.22;5005400;28;20233;-80
2023/03/25 00:32:44;;;;;;;1.43;0.67;;;;;;;10.16;77.19;99426.44;5005520;28;20285;-79
2023/03/25 00:35:12;;;;;;;2.10;0.70;;;;;;;10.13;77.43;99433.47;5004889;28;20206;-79
2023/03/25 00:37:40;;;;;;;2.50;0.83;;;;;;;10.16;77.64;99431.66;5004966;28;20205;-81
2023/03/25 00:40:10;;;;;;;1.50;0.70;;;;;;;10.11;77.31;99432.66;5005078;28;20206;-80
2023/03/25 00:42:36;;;;;;;2.30;0.73;;;;;;;10.08;77.94;99432.75;5005198;28;20275;-79
2023/03/25 00:45:03;;;;;;;1.40;0.60;;;;;;;10.07;77.73;99431.06;5004988;28;20208;-79
2023/03/25 00:47:30;;;;;;;1.70;0.80;;;;;;;9.87;77.58;99436.94;5005475;28;20200;-79
2023/03/25 00:49:56;;;;;;;2.23;0.97;;;;;;;9.92;77.98;99432.41;5004830;28;20227;-80
2023/03/25 00:52:22;;;;;;;2.33;0.90;;;;;;;9.97;77.72;99424.44;5004816;28;20220;-80
2023/03/25 00:54:51;;;;;;;2.70;0.80;;;;;;;9.98;78.14;99427.91;5004823;28;20204;-81
2023/03/25 00:57:17;;;;;;;1.87;0.70;;;;;;;9.98;77.84;99427.91;5004957;28;20267;-80
2023/03/25 00:59:44;;;;;;;2.30;0.93;;;;;;;9.83;78.04;99429.22;5003613;28;20204;-81
2023/03/25 01:02:10;;;;;;;1.13;0.70;;;;;;;9.90;78.38;99423.78;5004017;28;20229;-81
2023/03/25 01:04:38;;;;;;;1.97;1.53;;;;;;;9.93;78.36;99410.66;5004064;28;20733;-79
2023/03/25 01:07:04;;;;;;;0.60;0.60;;;;;;;9.95;77.91;99413.22;5003988;28;20299;-80
2023/03/25 01:09:31;;;;;;;2.07;0.67;;;;;;;9.80;78.63;99411.09;5004026;28;20233;-79
2023/03/25 01:11:59;;;;;;;2.37;0.60;;;;;;;9.83;78.86;99395.34;5004834;28;20228;-78
2023/03/25 01:14:26;;;;;;;0.90;0.50;;;;;;;9.77;78.36;99392.94;5004900;28;20278;-79
2023/03/25 01:16:53;;;;;;;1.53;0.70;;;;;;;9.85;77.92;99402.25;5004704;28;20262;-79
2023/03/25 01:19:19;;;;;;;1.93;0.70;;;;;;;9.92;78.19;99392.44;5005073;28;20210;-80
2023/03/25 01:21:46;;;;;;;2.00;0.70;;;;;;;9.65;78.74;99399.41;5003456;28;20224;-79
2023/03/25 01:24:14;;;;;;;0.93;0.70;;;;;;;9.75;78.83;99377.34;5004325;28;20204;-79
2023/03/25 01:26:42;;;;;;;2.40;1.00;;;;;;;9.83;79.04;99372.78;5003685;28;20200;-79
2023/03/25 01:29:10;;;;;;;1.10;1.00;;;;;;;9.87;79.11;99366.56;5003166;28;20694;-80
2023/03/25 01:31:37;;;;;;;1.83;0.90;;;;;;;9.97;78.57;99368.81;5003463;28;20220;-80
2023/03/25 01:34:03;;;;;;;1.50;0.80;;;;;;;9.86;78.49;99384.84;5002760;28;20657;-79
2023/03/25 01:36:29;;;;;;;1.57;0.77;;;;;;;9.86;78.37;99384.84;5000371;28;20212;-80
2023/03/25 01:38:57;;;;;;;2.10;0.67;;;;;;;9.77;79.38;99377.31;5000179;28;20212;-81
2023/03/25 01:41:24;;;;;;;1.97;0.90;;;;;;;9.56;79.24;99374.50;5001008;28;20232;-79
2023/03/25 01:44:02;;;;;;;2.13;0.80;;;;;;;9.63;78.83;99363.00;5002017;28;20550;-80
2023/03/25 01:46:30;;;;;;;1.60;0.90;;;;;;;9.73;80.17;99334.84;4998756;28;20210;-80
2023/03/25 01:48:58;;;;;;;2.40;0.97;;;;;;;9.81;81.17;99317.25;4998763;28;20251;-79
2023/03/25 01:51:28;;;;;;;1.13;0.80;;;;;;;9.89;79.29;99315.22;4998069;28;20290;-80
2023/03/25 01:53:55;;;;;;;1.43;1.00;;;;;;;9.90;78.92;99345.56;4997378;28;20212;-79
2023/03/25 01:56:29;;;;;;;2.00;0.90;;;;;;;9.84;79.75;99331.91;4997769;28;20280;-79
2023/03/25 01:58:56;;;;;;;1.43;0.70;;;;;;;9.75;79.34;99320.03;4998001;28;20664;-80
2023/03/25 02:01:25;;;;;;;1.13;0.90;;;;;;;9.86;79.98;99320.53;4997342;28;20649;-80
2023/03/25 02:04:01;;;;;;;1.87;1.00;;;;;;;9.76;79.66;99334.78;4998957;28;20618;-81
2023/03/25 02:06:32;;;;;;;0.70;0.70;;;;;;;9.88;79.66;99318.72;5003190;28;20612;-81
2023/03/25 02:09:03;;;;;;;1.00;0.70;;;;;;;9.90;79.47;99313.47;5002844;28;20199;-80
2023/03/25 02:11:30;;;;;;;1.50;0.77;;;;;;;9.86;80.22;99317.91;5003664;28;20323;-80
2023/03/25 02:14:00;;;;;;;0.70;0.70;;;;;;;9.78;82.03;99308.66;5004212;28;20228;-80
2023/03/25 02:16:32;;;;;;;1.37;0.87;;;;;;;9.70;82.80;99269.84;5004320;28;20205;-80
2023/03/25 02:19:16;;;;;;;0.63;0.60;;;;;;;9.50;84.19;99213.22;5004296;28;20666;-80
2023/03/25 02:22:10;;;;;;;1.47;0.80;;;;;;;9.46;84.95;99177.75;5004612;28;20229;-79
2023/03/25 02:25:14;;;;;;;0.70;0.70;;;;;;;9.38;86.13;99130.28;5004010;28;20220;-81
2023/03/25 02:27:53;;;;;;;1.27;0.97;;;;;;;9.43;86.60;99110.13;5003456;28;20228;-81
2023/03/25 02:30:35;;;;;;;1.47;1.10;;;;;;;9.50;85.26;99122.03;5003651;28;20256;-80
2023/03/25 02:33:24;;;;;;;2.07;0.90;;;;;;;9.53;85.70;99124.50;5003772;28;20564;-80
2023/03/25 02:36:13;;;;;;;1.00;0.90;;;;;;;9.52;86.06;99121.06;5004270;28;20219;-81
2023/03/25 02:38:45;;;;;;;1.63;0.90;;;;;;;9.31;85.40;99129.63;5003438;28;20267;-80
2023/03/25 02:41:16;;;;;;;1.80;0.90;;;;;;;9.34;85.47;99138.19;5003762;28;20255;-80
2023/03/25 02:43:49;;;;;;;2.80;0.90;;;;;;;9.33;84.31;99159.91;5004949;28;20234;-81
2023/03/25 02:46:18;;;;;;;1.97;1.07;;;;;;;9.28;84.33;99179.25;5003939;28;20203;-80
2023/03/25 02:48:52;;;;;;;1.63;0.93;;;;;;;9.31;84.41;99172.16;5003900;28;20220;-80
2023/03/25 02:51:25;;;;;;;1.30;1.20;;;;;;;9.31;84.14;99189.53;5004279;28;20228;-81
2023/03/25 02:53:54;;;;;;;1.00;0.77;;;;;;;9.41;83.95;99192.69;5004017;28;20269;-79
2023/03/25 02:56:25;;;;;;;1.57;1.10;;;;;;;9.11;84.11;99196.25;5003054;28;20219;-81
2023/03/25 02:58:55;;;;;;;1.77;1.30;;;;;;;9.31;83.87;99184.31;5003674;28;20203;-80
2023/03/25 03:01:25;;;;;;;2.57;1.10;;;;;;;9.31;82.78;99194.75;5005510;28;20234;-81
2023/03/25 03:03:52;;;;;;;1.30;1.00;;;;;;;9.29;82.10;99212.16;5006673;28;20213;-81
2023/03/25 03:06:19;;;;;;;2.20;1.17;;;;;;;9.32;81.67;99233.75;5007176;28;20213;-81
2023/03/25 03:09:02;;;;;;;2.67;0.90;;;;;;;9.29;81.62;99256.44;5006404;28;20205;-78
2023/03/25 03:11:33;;;;;;;1.83;0.97;;;;;;;9.29;81.50;99257.28;5005768;28;20227;-79
2023/03/25 03:14:12;;;;;;;1.83;1.13;;;;;;;9.34;81.39;99275.38;5005516;28;20210;-80
2023/03/25 03:16:48;;;;;;;1.50;1.40;;;;;;;9.33;80.87;99284.06;5004686;28;20598;-79
2023/03/25 03:19:30;;;;;;;2.80;1.20;;;;;;;9.20;81.75;99274.97;5003932;28;20241;-80
2023/03/25 03:22:00;;;;;;;1.57;1.20;;;;;;;9.18;81.58;99269.81;5004387;28;20250;-79
2023/03/25 03:24:32;;;;;;;4.03;1.23;;;;;;;9.20;80.92;99275.81;5005573;28;20199;-79
2023/03/25 03:27:04;;;;;;;3.30;1.00;;;;;;;9.23;80.79;99288.72;5003216;28;20207;-79
2023/03/25 03:29:36;;;;;;;1.80;0.90;;;;;;;9.21;80.82;99287.09;5003273;28;20209;-79
2023/03/25 03:32:07;;;;;;;2.40;1.20;;;;;;;9.12;80.06;99304.69;5003448;28;20228;-81
2023/03/25 03:34:43;;;;;;;4.07;1.50;;;;;;;9.10;79.75;99316.91;5002828;28;20210;-79
2023/03/25 03:37:13;;;;;;;1.80;1.47;;;;;;;9.05;79.77;99326.59;5003343;28;20203;-80
2023/03/25 03:39:43;;;;;;;1.63;1.50;;;;;;;9.08;79.41;99325.69;5004756;28;20611;-80
2023/03/25 03:42:17;;;;;;;4.77;2.67;;;;;;;9.08;79.13;99329.13;5007165;28;20247;-80
2023/03/25 03:44:49;;;;;;;3.77;1.50;;;;;;;9.12;79.10;99350.72;5007344;28;20198;-79
2023/03/25 03:47:19;;;;;;;2.70;1.33;;;;;;;9.05;78.64;99352.63;5007182;28;20207;-80
2023/03/25 03:49:49;;;;;;;3.27;1.13;;;;;;;9.04;78.48;99366.56;5006656;28;20201;-79
2023/03/25 03:52:20;;;;;;;3.93;1.63;;;;;;;9.08;78.07;99391.59;5007181;28;20252;-80
2023/03/25 03:54:52;;;;;;;2.63;1.03;;;;;;;9.09;78.00;99397.66;5007232;28;20234;-79
2023/03/25 03:57:22;;;;;;;3.50;1.17;;;;;;;9.17;77.27;99402.63;5007113;28;20216;-80
2023/03/25 03:59:56;;;;;;;1.83;1.40;;;;;;;9.15;77.61;99416.53;5007158;28;20232;-80
2023/03/25 04:02:27;;;;;;;5.33;1.90;;;;;;;8.97;77.96;99413.63;5006117;28;20231;-80
2023/03/25 04:04:54;;;;;;;3.90;1.20;;;;;;;9.04;77.97;99415.16;5005579;28;20209;-79
2023/03/25 04:07:27;;;;;;;1.43;1.33;;;;;;;8.94;77.93;99420.63;5004978;28;20212;-79
2023/03/25 04:10:03;;;;;;;3.50;1.30;;;;;;;9.11;77.52;99414.09;5006907;28;20281;-80
2023/03/25 04:12:33;;;;;;;2.57;1.20;;;;;;;9.14;78.03;99420.06;5007265;28;20282;-79
2023/03/25 04:15:01;;;;;;;1.70;1.37;;;;;;;9.15;77.95;99407.88;5005920;28;20215;-78
2023/03/25 04:17:28;;;;;;;4.13;1.47;;;;;;;9.13;78.37;99407.06;5005969;28;20204;-80
2023/03/25 04:19:55;;;;;;;2.00;1.33;;;;;;;9.22;78.11;99413.78;5006097;28;20726;-79
2023/03/25 04:22:21;;;;;;;2.50;1.40;;;;;;;9.21;77.61;99414.66;5007401;28;20224;-80
2023/03/25 04:24:50;;;;;;;1.67;1.27;;;;;;;9.25;77.57;99427.53;5006035;28;20260;-80
2023/03/25 04:27:21;;;;;;;3.30;1.50;;;;;;;9.23;78.39;99424.13;5004133;28;20203;-80
2023/03/25 04:29:48;;;;;;;2.00;1.70;;;;;;;8.80;79.80;99417.59;5005116;28;20207;-80
2023/03/25 04:32:14;;;;;;;1.43;1.33;;;;;;;8.63;81.77;99353.00;5006330;28;20224;-79
2023/03/25 04:34:41;;;;;;;1.67;1.33;;;;;;;8.04;87.27;99277.50;5005771;28;20216;-80
2023/03/25 04:37:07;;;;;;;2.20;2.00;;;;;;;7.93;90.92;99135.75;5004740;28;20203;-79
2023/03/25 04:39:34;;;;;;;3.80;1.80;;;;;;;7.65;94.92;99002.38;5003874;28;20235;-79
2023/03/25 04:42:01;;;;;;;3.40;1.50;;;;;;;7.50;96.43;98907.63;5003520;28;20226;-79
2023/03/25 04:44:32;;;;;;;0.97;0.87;;;;;;;7.47;94.58;98881.75;5002363;28;20203;-80
2023/03/25 04:46:59;;;;;;;1.17;0.77;;;;;;;7.41;95.18;98887.13;5002034;28;20254;-79
2023/03/25 04:49:26;;;;;;;0.97;0.93;;;;;;;7.47;94.71;98902.50;5002335;28;20626;-79
2023/03/25 04:51:55;;;;;;;1.00;0.90;;;;;;;7.55;94.69;98893.59;5001175;28;20233;-79
2023/03/25 04:54:22;;;;;;;1.20;0.87;;;;;;;7.63;94.71;98911.53;5002947;28;20290;-80
2023/03/25 04:56:49;;;;;;;0.93;0.70;;;;;;;7.58;95.10;98920.38;5004109;28;20207;-80
2023/03/25 04:59:17;;;;;;;2.37;1.27;;;;;;;7.64;96.36;98897.66;5005721;28;20232;-79
2023/03/25 05:01:45;;;;;;;1.70;1.00;;;;;;;7.74;95.92;98872.22;5005359;28;20265;-80
2023/03/25 05:04:16;;;;;;;1.23;1.13;;;;;;;7.70;97.42;98861.09;5003925;28;20207;-80
2023/03/25 05:06:45;;;;;;;1.47;1.33;;;;;;;7.69;98.09;98859.41;5004392;28;20207;-79
2023/03/25 05:09:14;;;;;;;1.30;1.20;;;;;;;7.72;97.80;98854.09;5003505;28;20207;-80
2023/03/25 05:11:41;;;;;;;2.33;1.73;;;;;;;7.71;98.48;98843.75;5003469;28;20716;-79
2023/03/25 05:14:08;;;;;;;2.97;1.20;;;;;;;7.75;98.62;98840.19;5005043;28;20207;-80
2023/03/25 05:16:35;;;;;;;1.73;1.50;;;;;;;7.82;99.49;98844.25;5006393;28;20222;-79
2023/03/25 05:19:05;;;;;;;2.13;1.40;;;;;;;7.86;98.56;98845.00;5006046;28;20213;-80
2023/03/25 05:21:32;;;;;;;1.70;1.60;;;;;;;8.00;98.06;98860.13;5005940;28;20255;-79
2023/03/25 05:24:00;;;;;;;1.97;1.57;;;;;;;8.06;97.72;98876.34;5005318;28;20814;-79
2023/03/25 05:26:33;;;;;;;2.13;1.50;;;;;;;8.18;96.47;98893.28;5006774;28;20204;-80
2023/03/25 05:29:00;;;;;;;2.13;1.60;;;;;;;8.22;95.95;98907.84;5006352;28;20205;-80
2023/03/25 05:31:26;;;;;;;1.60;1.50;;;;;;;8.23;94.77;98927.75;5005977;28;20264;-80
2023/03/25 05:33:53;;;;;;;1.87;1.57;;;;;;;8.22;95.02;98938.22;5005492;28;20200;-79
2023/03/25 05:36:23;;;;;;;3.10;1.80;;;;;;;8.24;95.62;98947.66;5005979;28;20268;-80
2023/03/25 05:38:50;;;;;;;4.00;2.53;;;;;;;8.21;95.83;98950.38;5006384;28;20223;-80
2023/03/25 05:41:17;;;;;;;3.97;1.80;;;;;;;8.26;95.74;98951.03;5006794;28;20219;-80
2023/03/25 05:43:46;;;;;;;2.70;1.63;;;;;;;8.23;95.16;98971.13;5005616;28;20207;-79
2023/03/25 05:46:13;;;;;;;3.80;1.90;;;;;;;8.19;94.35;98991.16;5004882;28;20203;-78
2023/03/25 05:48:40;;;;;;;5.00;2.10;;;;;;;8.11;93.34;99007.00;5004914;28;20233;-80
2023/03/25 05:51:12;;;;;;;3.83;2.00;;;;;;;8.15;92.73;99033.75;5005330;28;20227;-79
2023/03/25 05:53:40;;;;;;;3.77;2.30;;;;;;;8.24;91.69;99061.19;5004664;28;20202;-80
2023/03/25 05:56:07;;;;;;;3.40;2.07;;;;;;;8.29;90.08;99077.50;5005725;28;20690;-80
2023/03/25 05:58:34;;;;;;;2.90;2.07;;;;;;;8.31;91.58;99089.53;5005310;28;20234;-80
2023/03/25 06:01:01;;;;;;;3.07;1.97;;;;;;;8.39;91.84;99083.25;5005501;28;20259;-83
2023/03/25 06:03:28;;;;;;;2.43;2.00;;;;;;;8.20;90.36;99107.19;5006037;28;20260;-79
2023/03/25 06:05:55;;;;;;;4.77;2.30;;;;;;;8.32;90.87;99112.06;5005763;28;20211;-80
2023/03/25 06:08:24;;;;;;;3.30;2.00;;;;;;;8.37;90.22;99108.44;5005766;28;20208;-80
2023/03/25 06:10:57;;;;;;;2.73;2.07;;;;;;;8.46;91.21;99119.44;5005094;28;20224;-81
2023/03/25 06:13:23;;;;;;;5.07;2.20;;;;;;;8.48;90.66;99101.16;5005816;28;20225;-82
2023/03/25 06:15:54;;;;;;;3.00;2.20;;;;;;;8.51;89.98;99121.91;5007984;28;20203;-82
2023/03/25 06:18:23;;;;;;;3.23;1.93;;;;;;;8.43;89.00;99149.91;5007707;28;20216;-81
2023/03/25 06:20:52;;;;;;;2.97;2.30;;;;;;;8.48;88.33;99172.25;5004503;28;20278;-81
2023/03/25 06:23:21;;;;;;;2.77;2.47;;;;;;;8.49;88.22;99176.53;5006859;28;20203;-81
2023/03/25 06:25:47;;;;;;;9.67;2.90;;;;;;;8.62;88.80;99166.63;5006819;28;20233;-80
2023/03/25 06:28:17;;;;;;;3.37;2.70;;;;;;;8.65;88.15;99173.47;5006710;28;20723;-80
2023/03/25 06:30:44;;;;;;;2.10;1.87;;;;;;;8.74;88.34;99173.16;5007578;28;20224;-81
2023/03/25 06:33:10;;;;;;;2.73;2.03;;;;;;;8.72;86.89;99195.78;5007677;28;20211;-81
2023/03/25 06:35:36;;;;;;;3.43;1.83;;;;;;;8.65;85.14;99230.72;5007109;28;20209;-81
2023/03/25 06:38:03;;;;;;;2.37;1.73;;;;;;;8.67;84.82;99242.75;5008039;28;20203;-81
2023/03/25 06:40:29;;;;;;;3.50;1.60;;;;;;;8.67;84.11;99271.38;5007937;28;20203;-81
2023/03/25 06:42:55;;;;;;;2.47;1.83;;;;;;;8.78;84.62;99276.28;5006745;28;20232;-80
2023/03/25 06:45:23;;;;;;;2.77;1.70;;;;;;;8.81;84.61;99289.16;5006627;28;20206;-82
2023/03/25 06:47:49;;;;;;;2.10;1.63;;;;;;;8.88;84.47;99302.84;5007464;28;20548;-82
2023/03/25 06:50:16;;;;;;;2.60;1.57;;;;;;;8.97;84.48;99296.50;5007036;28;20239;-81
2023/03/25 06:52:42;;;;;;;1.97;1.70;;;;;;;8.96;83.69;99319.09;5006004;28;20254;-83
2023/03/25 06:55:09;;;;;;;3.00;2.27;;;;;;;9.03;83.48;99322.34;5006493;28;20696;-80
2023/03/25 06:57:36;;;;;;;3.03;1.90;;;;;;;8.93;82.41;99340.84;5006933;28;20207;-81
2023/03/25 07:00:05;;;;;;;2.17;1.73;;;;;;;9.00;82.73;99354.53;5007199;28;20670;-83
2023/03/25 07:02:33;;;;;;;2.47;1.60;;;;;;;8.97;81.93;99377.19;5006755;28;20289;-81
2023/03/25 07:04:59;;;;;;;1.97;1.60;;;;;;;9.00;82.06;99380.56;5006827;28;20201;-82
2023/03/25 07:07:25;;;;;;;2.27;1.60;;;;;;;8.94;82.17;99379.00;5007000;28;20204;-80
2023/03/25 07:09:53;;;;;;;4.23;1.50;;;;;;;8.92;81.77;99390.34;5007549;28;20737;-81
2023/03/25 07:12:20;;;;;;;1.87;1.40;;;;;;;8.98;82.05;99390.19;5007182;28;20260;-80
2023/03/25 07:14:50;;;;;;;3.27;1.80;;;;;;;8.92;82.29;99380.78;5009500;28;20219;-82
2023/03/25 07:17:17;;;;;;;2.20;1.40;;;;;;;9.07;82.26;99373.41;5010672;28;20235;-82
2023/03/25 07:19:45;;;;;;;2.47;1.30;;;;;;;9.15;82.18;99374.03;5011057;28;20208;-81
2023/03/25 07:22:11;;;;;;;2.90;1.80;;;;;;;9.08;82.44;99370.78;5011694;28;20231;-83
2023/03/25 07:24:37;;;;;;;2.40;1.30;;;;;;;9.13;82.56;99371.47;5011224;28;20664;-81
2023/03/25 07:27:04;;;;;;;2.80;1.70;;;;;;;9.03;81.79;99379.63;5010184;28;20208;-81
2023/03/25 07:29:30;;;;;;;3.00;2.20;;;;;;;9.22;82.83;99370.34;5009929;28;20294;-82
2023/03/25 07:31:58;;;;;;;3.73;1.80;;;;;;;9.31;83.22;99351.81;5009907;28;20571;-81
2023/03/25 07:34:25;;;;;;;2.73;1.63;;;;;;;9.25;82.56;99344.22;5010043;28;20199;-79
2023/03/25 07:36:52;;;;;;;3.23;1.90;;;;;;;9.30;82.99;99346.69;5009072;28;20224;-80
2023/03/25 07:39:18;;;;;;;2.40;2.13;;;;;;;9.36;83.22;99340.44;5008477;28;20205;-82
2023/03/25 07:41:46;;;;;;;1.60;1.50;;;;;;;9.29;83.80;99335.41;5007513;28;20216;-81
2023/03/25 07:44:13;;;;;;;2.50;1.63;;;;;;;9.30;83.71;99318.88;5009757;28;20706;-81
2023/03/25 07:46:39;;;;;;;4.30;1.67;;;;;;;9.34;83.98;99324.84;5010401;28;20207;-80
2023/03/25 07:49:06;;;;;;;3.17;1.93;;;;;;;9.41;82.69;99321.13;5010409;28;20202;-82
2023/03/25 07:51:33;;;;;;;4.73;2.33;;;;;;;9.49;83.55;99318.28;5009948;28;20228;-81
2023/03/25 07:54:01;;;;;;;4.23;1.47;;;;;;;9.60;82.38;99355.28;5009757;28;20204;-81
2023/03/25 07:56:27;;;;;;;3.17;1.43;;;;;;;9.65;81.77;99360.31;5010880;28;20231;-81
2023/03/25 07:58:54;;;;;;;1.70;1.60;;;;;;;9.56;80.84;99384.94;5009695;28;20207;-82
2023/03/25 08:01:20;;;;;;;1.67;1.57;;;;;;;9.65;82.19;99375.97;5010987;28;20221;-81
2023/03/25 08:03:46;;;;;;;1.50;1.40;;;;;;;9.26;78.49;99431.00;5008644;28;20204;-82
2023/03/25 08:06:13;;;;;;;1.70;1.27;;;;;;;9.33;80.18;99443.78;5010344;28;20207;-82
2023/03/25 08:08:39;;;;;;;3.43;1.80;;;;;;;9.52;81.92;99423.25;5010856;28;20203;-81
2023/03/25 08:11:07;;;;;;;2.30;1.40;;;;;;;9.40;80.76;99423.63;5010677;28;20235;-80
2023/03/25 08:13:34;;;;;;;3.53;1.43;;;;;;;9.49;81.14;99420.75;5008168;28;20209;-82
2023/03/25 08:16:01;;;;;;;2.13;1.53;;;;;;;9.65;82.08;99400.28;5003009;28;20202;-83
2023/03/25 08:18:27;;;;;;;1.53;1.40;;;;;;;9.64;80.31;99421.16;4998989;28;20277;-80
2023/03/25 08:20:54;;;;;;;1.53;1.37;;;;;;;9.57;79.27;99440.47;4998636;28;20228;-81
2023/03/25 08:23:21;;;;;;;1.90;1.27;;;;;;;9.50;79.49;99461.50;4998789;28;20207;-79
2023/03/25 08:25:49;;;;;;;1.50;1.40;;;;;;;9.63;80.16;99455.94;4996923;28;20205;-81
2023/03/25 08:28:21;;;;;;;1.50;1.30;;;;;;;9.50;78.63;99458.91;4999213;28;20208;-80
2023/03/25 08:30:48;;;;;;;2.87;1.47;;;;;;;9.67;79.72;99470.56;4997368;28;20225;-81
2023/03/25 08:33:17;;;;;;;4.57;1.40;;;;;;;9.76;80.03;99459.88;4997174;28;20257;-80
2023/03/25 08:35:44;;;;;;;2.73;1.40;;;;;;;9.87;82.29;99430.84;4997620;28;20210;-80
2023/03/25 08:38:11;;;;;;;1.40;1.30;;;;;;;9.75;80.74;99421.66;4997931;28;20641;-80
2023/03/25 08:40:37;;;;;;;2.80;1.27;;;;;;;9.85;80.94;99402.25;4998118;28;20209;-80
2023/03/25 08:43:04;;;;;;;1.60;1.03;;;;;;;9.79;79.70;99412.00;4997294;28;20260;-81
2023/03/25 08:45:33;;;;;;;2.30;1.23;;;;;;;9.52;79.08;99451.91;4998121;28;20670;-80
2023/03/25 08:48:00;;;;;;;3.83;1.60;;;;;;;9.44;79.57;99468.69;4998366;28;20211;-79
2023/03/25 08:50:26;;;;;;;1.37;1.27;;;;;;;9.49;80.29;99431.19;4996999;28;20200;-80
2023/03/25 08:52:56;;;;;;;3.20;1.20;;;;;;;9.68;81.16;99420.16;4997035;28;20728;-78
2023/03/25 08:55:23;;;;;;;1.10;1.00;;;;;;;9.71;79.23;99413.13;4997421;28;20208;-79
2023/03/25 08:57:49;;;;;;;2.67;1.23;;;;;;;9.69;79.10;99417.53;4997338;28;20341;-79
2023/03/25 09:00:17;;;;;;;1.57;1.07;;;;;;;9.74;79.40;99440.81;4998116;28;20244;-79
2023/03/25 09:02:45;;;;;;;1.77;1.10;;;;;;;9.75;78.88;99468.56;4997765;28;20228;-78
2023/03/25 09:05:14;;;;;;;3.47;1.23;;;;;;;9.84;79.73;99450.03;4998686;28;20269;-80
2023/03/25 09:07:41;;;;;;;1.40;1.00;;;;;;;9.61;79.89;99435.13;4998735;28;20216;-79
2023/03/25 09:10:09;;;;;;;1.87;0.90;;;;;;;9.52;80.30;99432.81;4998277;28;20297;-78
2023/03/25 09:12:36;;;;;;;3.10;1.00;;;;;;;9.66;80.86;99425.41;4998443;28;20260;-79
2023/03/25 09:15:02;;;;;;;1.00;0.90;;;;;;;9.67;79.69;99421.94;4997956;28;20194;-79
2023/03/25 09:17:28;;;;;;;1.50;1.10;;;;;;;9.79;79.87;99425.03;4994858;28;20193;-79
2023/03/25 09:19:56;;;;;;;1.20;1.10;;;;;;;9.88;79.89;99420.38;4998048;28;20213;-80
2023/03/25 09:22:22;;;;;;;1.47;0.90;;;;;;;9.87;78.82;99441.25;4997945;28;20242;-80
2023/03/25 09:24:48;;;;;;;2.90;0.87;;;;;;;9.80;77.98;99424.97;4995054;28;20197;-79
2023/03/25 09:27:15;;;;;;;1.27;0.87;;;;;;;9.91;76.99;99475.03;4997039;28;20681;-79
2023/03/25 09:29:41;;;;;;;2.47;0.90;;;;;;;9.89;77.02;99504.63;4997385;28;20677;-78
2023/03/25 09:32:08;;;;;;;5.37;1.30;;;;;;;9.87;76.27;99535.09;5000152;28;20225;-79
2023/03/25 09:34:34;;;;;;;1.97;1.87;;;;;;;9.68;75.62;99553.06;5000454;28;20257;-80
2023/03/25 09:37:03;;;;;;;1.27;0.93;;;;;;;9.60;76.03;99555.88;5000320;28;20209;-83
2023/03/25 09:39:30;;;;;;;2.27;1.43;;;;;;;9.81;76.95;99549.19;4997565;28;20657;-79
2023/03/25 09:42:18;;;;;;;1.50;1.10;;;;;;;9.99;76.44;99536.47;5000493;28;20222;-82
2023/03/25 09:44:55;;;;;;;1.83;1.23;;;;;;;10.25;74.90;99549.56;4999843;28;20217;-83
2023/03/25 09:47:23;;;;;;;2.77;1.20;;;;;;;10.33;72.56;99635.44;5004372;28;20230;-84
2023/03/25 09:49:54;;;;;;;1.27;1.10;;;;;;;10.43;72.02;99657.72;5003049;28;20204;-83
2023/03/25 09:52:27;;;;;;;1.13;0.90;;;;;;;10.55;72.39;99677.38;5005388;28;20226;-81
2023/03/25 09:54:59;;;;;;;1.93;0.90;;;;;;;10.71;72.26;99691.63;5005779;28;20258;-81
2023/03/25 09:57:30;;;;;;;1.70;0.90;;;;;;;10.63;70.27;99727.56;5002049;28;20219;-82
2023/03/25 09:59:59;;;;;;;2.70;1.07;;;;;;;10.71;71.63;99740.38;5005318;28;20209;-82
2023/03/25 10:02:36;;;;;;;1.70;1.03;;;;;;;10.78;71.27;99754.94;5003582;28;20257;-81
2023/03/25 10:05:31;;;;;;;2.20;1.00;;;;;;;10.73;72.21;99739.44;5001450;28;20272;-80
2023/03/25 10:08:10;;;;;;;2.00;1.00;;;;;;;10.75;72.45;99712.44;5003712;28;20577;-82
2023/03/25 10:10:44;;;;;;;1.80;1.00;;;;;;;10.56;70.79;99748.66;5003268;28;20207;-83
2023/03/25 10:13:16;;;;;;;2.37;1.03;;;;;;;10.40;71.76;99753.50;5002950;28;20242;-82
2023/03/25 10:15:54;;;;;;;1.40;1.00;;;;;;;10.30;71.75;99730.28;5000807;28;20203;-82
2023/03/25 10:18:42;;;;;;;5.40;1.07;;;;;;;10.32;72.34;99719.78;5003869;28;20208;-82
2023/03/25 10:21:15;;;;;;;1.77;1.07;;;;;;;10.10;71.31;99730.81;5002847;28;20244;-80
2023/03/25 10:23:49;;;;;;;2.77;1.00;;;;;;;10.26;73.02;99714.72;5001783;28;20608;-82
2023/03/25 10:26:22;;;;;;;2.33;1.10;;;;;;;10.36;72.50;99676.22;5001459;28;20253;-83
2023/03/25 10:28:54;;;;;;;2.40;1.10;;;;;;;10.40;70.75;99709.97;5000414;28;20262;-81
2023/03/25 10:31:27;;;;;;;3.63;1.63;;;;;;;10.48;71.25;99718.44;5000890;28;20224;-82
2023/03/25 10:33:56;;;;;;;2.43;1.93;;;;;;;10.55;70.04;99729.56;5002561;28;20229;-83
2023/03/25 10:36:34;;;;;;;2.60;1.60;;;;;;;10.66;69.52;99747.50;5001544;28;20202;-83
2023/03/25 10:39:11;;;;;;;5.77;1.80;;;;;;;10.71;68.54;99748.22;5000458;28;20670;-82
2023/03/25 10:41:42;;;;;;;2.60;1.70;;;;;;;10.88;68.93;99768.56;5000017;28;20610;-83
2023/03/25 10:44:09;;;;;;;3.97;2.17;;;;;;;10.97;67.84;99767.44;5001597;28;20708;-84
2023/03/25 10:46:46;;;;;;;4.37;1.50;;;;;;;10.73;66.30;99809.91;4999109;28;20216;-81
2023/03/25 10:49:16;;;;;;;4.67;1.70;;;;;;;10.62;66.33;99886.81;5002653;28;20834;-80
2023/03/25 10:51:42;;;;;;;4.17;1.90;;;;;;;10.62;67.20;99905.91;5003870;28;20717;-82
2023/03/25 10:54:14;;;;;;;2.97;1.70;;;;;;;10.50;68.90;99874.94;5005196;28;20229;-82
2023/03/25 10:56:44;;;;;;;3.20;1.63;;;;;;;10.55;70.39;99820.91;5008365;28;20192;-83
2023/03/25 10:59:17;;;;;;;3.17;1.67;;;;;;;10.64;70.40;99780.59;5008373;28;20413;-83
2023/03/25 11:01:49;;;;;;;4.87;1.50;;;;;;;10.54;71.29;99793.06;4997426;28;20244;-82
2023/03/25 11:04:19;;;;;;;3.93;1.40;;;;;;;10.38;70.49;99757.91;4999171;28;20206;-81
2023/03/25 11:06:51;;;;;;;2.13;1.50;;;;;;;10.61;71.11;99723.31;4998240;28;20747;-82
2023/03/25 11:09:24;;;;;;;2.37;1.70;;;;;;;10.80;70.17;99708.78;5001756;28;20205;-82
2023/03/25 11:11:52;;;;;;;2.53;1.60;;;;;;;10.96;68.29;99726.53;5000310;28;20358;-83
2023/03/25 11:14:22;;;;;;;3.57;1.67;;;;;;;11.13;66.20;99755.59;5000085;28;20713;-83
2023/03/25 11:16:54;;;;;;;2.20;1.73;;;;;;;11.48;67.82;99783.19;5001453;28;20209;-83
2023/03/25 11:19:25;;;;;;;3.30;1.60;;;;;;;11.52;65.51;99817.91;5001887;28;20200;-80
2023/03/25 11:21:55;;;;;;;4.10;2.00;;;;;;;11.77;66.66;99851.94;5002476;28;20222;-82
2023/03/25 11:24:27;;;;;;;2.43;1.43;;;;;;;11.61;66.26;99866.41;5002570;28;20234;-83
2023/03/25 11:26:53;;;;;;;2.07;1.77;;;;;;;11.64;66.26;99859.34;5002682;28;20228;-83
2023/03/25 11:29:25;;;;;;;3.20;1.50;;;;;;;11.64;65.12;99889.84;5002947;28;20695;-82
2023/03/25 11:32:06;;;;;;;3.53;1.60;;;;;;;11.76;64.86;99899.06;5003884;28;20219;-82
2023/03/25 11:34:40;;;;;;;2.73;1.80;;;;;;;11.88;64.20;99885.59;5000931;28;20690;-83
2023/03/25 11:37:16;;;;;;;3.83;1.90;;;;;;;11.85;64.51;99910.09;5000226;28;20206;-81
2023/03/25 11:39:49;;;;;;;2.60;1.50;;;;;;;11.41;63.20;99946.31;5000262;28;20220;-80
2023/03/25 11:42:28;;;;;;;3.73;2.00;;;;;;;11.48;67.07;99926.09;5001414;28;20716;-82
2023/03/25 11:44:58;;;;;;;3.63;1.70;;;;;;;11.33;64.59;99896.88;5001439;28;20235;-84
2023/03/25 11:47:26;;;;;;;3.13;1.80;;;;;;;11.39;66.29;99889.78;5001902;28;20333;-85
2023/03/25 11:49:54;;;;;;;4.10;1.90;;;;;;;11.44;65.66;99875.66;5001879;28;20211;-82